createdAt,value
2018-05-05T00:00:23.778Z,99.90
2018-05-05T00:02:52.063Z,99.90
2018-05-05T00:05:20.400Z,99.90
2018-05-05T00:07:47.928Z,99.90
2018-05-05T00:10:16.228Z,99.90
2018-05-05T00:12:44.521Z,99.90
2018-05-05T00:15:12.176Z,99.90
2018-05-05T00:17:40.524Z,99.90
2018-05-05T00:20:08.102Z,99.90
2018-05-05T00:22:35.624Z,99.90
2018-05-05T00:25:03.940Z,99.90
2018-05-05T00:27:31.478Z,99.90
2018-05-05T00:29:59.768Z,99.90
2018-05-05T00:32:28.042Z,99.90
2018-05-05T00:34:55.580Z,99.90
2018-05-05T00:37:23.108Z,99.90
2018-05-05T00:39:51.443Z,99.90
2018-05-05T00:42:18.940Z,99.90
2018-05-05T00:44:46.516Z,99.90
2018-05-05T00:47:14.053Z,99.90
2018-05-05T00:49:41.627Z,99.90
2018-05-05T00:52:09.257Z,99.90
2018-05-05T00:54:48.750Z,99.90
2018-05-05T00:57:16.551Z,99.90
2018-05-05T00:59:44.130Z,99.90
2018-05-05T01:02:11.700Z,99.90
2018-05-05T01:04:39.258Z,99.90
2018-05-05T01:07:06.815Z,99.90
2018-05-05T01:09:34.374Z,99.90
2018-05-05T01:12:01.905Z,99.90
2018-05-05T01:14:30.285Z,99.90
2018-05-05T01:16:57.796Z,99.90
2018-05-05T01:19:25.391Z,99.90
2018-05-05T01:21:53.002Z,99.90
2018-05-05T01:24:20.543Z,99.90
2018-05-05T01:26:48.077Z,99.90
2018-05-05T01:29:15.599Z,99.90
2018-05-05T01:31:43.128Z,99.90
2018-05-05T01:34:10.685Z,99.90
2018-05-05T01:36:38.279Z,99.90
2018-05-05T01:39:05.814Z,99.90
2018-05-05T01:41:34.190Z,99.90
2018-05-05T01:44:01.727Z,99.90
2018-05-05T01:46:29.266Z,99.90
2018-05-05T01:48:57.563Z,99.90
2018-05-05T01:51:27.150Z,99.90
2018-05-05T01:53:54.660Z,99.90
2018-05-05T01:56:22.322Z,99.90
2018-05-05T01:58:49.939Z,99.90
2018-05-05T02:01:17.533Z,99.90
2018-05-05T02:03:45.071Z,99.90
2018-05-05T02:06:12.634Z,99.90
2018-05-05T02:08:40.189Z,99.90
2018-05-05T02:11:07.764Z,99.90
2018-05-05T02:13:35.297Z,99.90
2018-05-05T02:16:02.828Z,99.90
2018-05-05T02:18:30.334Z,99.90
2018-05-05T02:20:57.920Z,99.90
2018-05-05T02:23:26.196Z,99.90
2018-05-05T02:25:53.725Z,99.90
2018-05-05T02:28:21.245Z,99.90
2018-05-05T02:30:49.564Z,99.90
2018-05-05T02:33:17.118Z,99.90
2018-05-05T02:35:45.409Z,99.90
2018-05-05T02:38:13.714Z,99.90
2018-05-05T02:40:41.320Z,99.90
2018-05-05T02:43:08.893Z,99.90
2018-05-05T02:45:36.416Z,99.90
2018-05-05T02:48:04.721Z,99.90
2018-05-05T02:50:32.299Z,99.90
2018-05-05T02:52:59.832Z,99.90
2018-05-05T02:55:27.356Z,99.90
2018-05-05T02:57:54.906Z,99.90
2018-05-05T03:00:22.502Z,99.90
2018-05-05T03:02:50.056Z,99.90
2018-05-05T03:05:17.650Z,99.90
2018-05-05T03:07:45.205Z,99.90
2018-05-05T03:10:12.842Z,99.90
2018-05-05T03:12:40.368Z,99.90
2018-05-05T03:15:08.396Z,99.90
2018-05-05T03:17:36.471Z,99.90
2018-05-05T03:20:04.144Z,99.90
2018-05-05T03:22:32.519Z,99.90
2018-05-05T03:25:00.420Z,99.90
2018-05-05T03:27:28.712Z,99.90
2018-05-05T03:29:56.346Z,99.90
2018-05-05T03:32:23.978Z,99.90
2018-05-05T03:34:52.379Z,99.90
2018-05-05T03:37:20.689Z,99.90
2018-05-05T03:39:48.334Z,99.90
2018-05-05T03:42:16.828Z,99.90
2018-05-05T03:44:45.522Z,99.90
2018-05-05T03:47:14.105Z,99.90
2018-05-05T03:49:41.945Z,99.90
2018-05-05T03:52:09.555Z,99.90
2018-05-05T03:54:37.158Z,99.90
2018-05-05T03:57:04.933Z,99.90
2018-05-05T03:59:45.413Z,99.90
2018-05-05T04:02:25.168Z,99.90
2018-05-05T04:08:11.625Z,99.90
2018-05-05T04:10:39.245Z,99.90
2018-05-05T04:13:07.119Z,99.90
2018-05-05T04:15:46.218Z,99.90
2018-05-05T04:18:14.306Z,99.90
2018-05-05T04:20:41.985Z,99.90
2018-05-05T04:23:09.720Z,99.90
2018-05-05T04:25:41.938Z,99.90
2018-05-05T04:28:09.585Z,99.90
2018-05-05T04:30:37.546Z,99.90
2018-05-05T04:33:05.269Z,99.90
2018-05-05T04:35:37.790Z,99.90
2018-05-05T04:38:06.028Z,99.90
2018-05-05T04:40:34.950Z,99.90
2018-05-05T04:43:02.899Z,99.90
2018-05-05T04:45:32.144Z,99.90
2018-05-05T04:48:01.014Z,99.90
2018-05-05T04:50:33.898Z,99.90
2018-05-05T04:53:01.498Z,99.90
2018-05-05T04:55:29.792Z,99.90
2018-05-05T04:57:58.098Z,99.90
2018-05-05T05:00:26.486Z,99.90
2018-05-05T05:02:54.263Z,99.90
2018-05-05T05:05:21.940Z,99.90
2018-05-05T05:07:49.529Z,99.90
2018-05-05T05:10:17.060Z,99.90
2018-05-05T05:12:45.454Z,99.90
2018-05-05T05:15:13.757Z,99.90
2018-05-05T05:17:42.054Z,99.90
2018-05-05T05:20:09.701Z,99.90
2018-05-05T05:22:38.084Z,93.50
2018-05-05T05:25:05.624Z,93.40
2018-05-05T05:27:33.172Z,84.90
2018-05-05T05:30:00.705Z,75.00
2018-05-05T05:32:29.380Z,68.10
2018-05-05T05:34:57.165Z,67.20
2018-05-05T05:37:25.449Z,65.30
2018-05-05T05:39:53.154Z,65.30
2018-05-05T05:42:22.146Z,58.80
2018-05-05T05:44:49.669Z,58.90
2018-05-05T05:47:17.473Z,57.50
2018-05-05T05:49:45.125Z,55.00
2018-05-05T05:52:12.668Z,52.10
2018-05-05T05:54:40.203Z,52.70
2018-05-05T05:57:07.722Z,52.70
2018-05-05T05:59:35.460Z,52.50
2018-05-05T06:02:03.209Z,49.60
2018-05-05T06:04:30.876Z,49.70
2018-05-05T06:06:58.421Z,48.30
2018-05-05T06:09:26.021Z,47.30
2018-05-05T06:11:54.120Z,47.40
2018-05-05T06:14:21.677Z,45.60
2018-05-05T06:16:49.181Z,44.60
2018-05-05T06:19:17.264Z,42.90
2018-05-05T06:21:45.532Z,43.70
2018-05-05T06:24:13.065Z,43.70
2018-05-05T06:26:40.629Z,42.20
2018-05-05T06:29:08.124Z,42.60
2018-05-05T06:31:35.681Z,42.50
2018-05-05T06:34:03.318Z,40.10
2018-05-05T06:36:30.993Z,40.40
2018-05-05T06:38:58.519Z,41.00
2018-05-05T06:41:26.048Z,39.10
2018-05-05T06:43:54.399Z,38.10
2018-05-05T06:46:22.046Z,38.20
2018-05-05T06:48:50.317Z,39.30
2018-05-05T06:51:17.942Z,38.30
2018-05-05T06:53:45.490Z,36.70
2018-05-05T06:56:14.433Z,36.30
2018-05-05T06:58:41.997Z,36.10
2018-05-05T07:01:09.896Z,36.10
2018-05-05T07:03:37.570Z,35.60
2018-05-05T07:06:05.169Z,33.90
2018-05-05T07:08:32.731Z,33.70
2018-05-05T07:11:01.121Z,32.60
2018-05-05T07:13:29.517Z,33.60
2018-05-05T07:15:57.328Z,33.60
2018-05-05T07:18:25.177Z,32.50
2018-05-05T07:20:52.844Z,32.50
2018-05-05T07:23:21.526Z,31.40
2018-05-05T07:25:49.085Z,32.10
2018-05-05T07:28:16.698Z,30.10
2018-05-05T07:30:48.523Z,29.70
2018-05-05T07:33:16.168Z,31.20
2018-05-05T07:35:43.745Z,30.80
2018-05-05T07:38:11.253Z,32.00
2018-05-05T07:40:39.056Z,31.40
2018-05-05T07:43:07.391Z,33.40
2018-05-05T07:45:35.340Z,33.40
2018-05-05T07:48:03.011Z,33.30
2018-05-05T07:50:30.596Z,32.30
2018-05-05T07:52:58.269Z,32.00
2018-05-05T07:55:26.081Z,31.50
2018-05-05T07:57:53.588Z,31.90
2018-05-05T08:00:21.859Z,33.00
2018-05-05T08:02:50.171Z,31.30
2018-05-05T08:05:18.885Z,33.00
2018-05-05T08:07:46.721Z,33.00
2018-05-05T08:10:14.220Z,34.90
2018-05-05T08:12:42.549Z,36.60
2018-05-05T08:15:10.066Z,36.50
2018-05-05T08:17:37.584Z,36.30
2018-05-05T08:20:05.080Z,36.10
2018-05-05T08:22:32.608Z,35.40
2018-05-05T08:25:00.113Z,36.30
2018-05-05T08:27:27.632Z,36.10
2018-05-05T08:29:55.951Z,35.30
2018-05-05T08:32:23.472Z,35.20
2018-05-05T08:34:51.736Z,33.80
2018-05-05T08:37:19.302Z,33.90
2018-05-05T08:39:46.999Z,33.10
2018-05-05T08:42:14.538Z,36.00
2018-05-05T08:44:42.045Z,35.10
2018-05-05T08:47:09.561Z,35.50
2018-05-05T08:49:37.079Z,36.20
2018-05-05T08:52:04.621Z,35.80
2018-05-05T08:54:32.118Z,36.00
2018-05-05T08:56:59.632Z,35.10
2018-05-05T08:59:27.979Z,36.50
2018-05-05T09:01:55.600Z,36.50
2018-05-05T09:04:23.897Z,33.60
2018-05-05T09:06:51.400Z,33.50
2018-05-05T09:09:18.940Z,33.90
2018-05-05T09:11:46.444Z,32.40
2018-05-05T09:14:13.981Z,33.30
2018-05-05T09:16:41.671Z,33.90
2018-05-05T09:19:09.189Z,32.70
2018-05-05T09:21:36.712Z,34.60
2018-05-05T09:24:04.301Z,36.20
2018-05-05T09:26:31.893Z,35.00
2018-05-05T09:28:59.451Z,35.40
2018-05-05T09:31:26.955Z,34.70
2018-05-05T09:33:54.613Z,34.60
2018-05-05T09:36:23.056Z,34.20
2018-05-05T09:38:50.616Z,34.20
2018-05-05T09:41:18.983Z,36.20
2018-05-05T09:43:47.299Z,36.50
2018-05-05T09:46:16.016Z,37.60
2018-05-05T09:48:43.578Z,37.50
2018-05-05T09:51:11.176Z,39.30
2018-05-05T09:53:38.676Z,41.20
2018-05-05T09:56:06.209Z,40.20
2018-05-05T09:58:33.722Z,41.80
2018-05-05T10:01:01.255Z,43.80
2018-05-05T10:03:28.860Z,43.90
2018-05-05T10:05:56.377Z,43.80
2018-05-05T10:08:24.644Z,45.90
2018-05-05T10:10:52.961Z,46.70
2018-05-05T10:13:20.498Z,46.60
2018-05-05T10:15:48.090Z,45.60
2018-05-05T10:18:15.592Z,46.00
2018-05-05T10:20:43.135Z,47.10
2018-05-05T10:23:11.401Z,48.40
2018-05-05T10:25:38.921Z,48.30
2018-05-05T10:28:06.426Z,47.60
2018-05-05T10:30:33.957Z,47.90
2018-05-05T10:33:02.432Z,47.70
2018-05-05T10:35:30.925Z,48.40
2018-05-05T10:37:58.424Z,48.40
2018-05-05T10:40:25.970Z,48.20
2018-05-05T10:42:53.477Z,49.90
2018-05-05T10:45:21.028Z,48.50
2018-05-05T10:47:48.610Z,48.50
2018-05-05T10:50:16.181Z,48.40
2018-05-05T10:52:43.705Z,49.90
2018-05-05T10:55:11.309Z,48.90
2018-05-05T10:57:38.828Z,50.20
2018-05-05T11:00:06.327Z,49.40
2018-05-05T11:02:34.616Z,51.20
2018-05-05T11:05:02.915Z,50.70
2018-05-05T11:07:31.308Z,51.50
2018-05-05T11:09:58.936Z,51.40
2018-05-05T11:12:26.449Z,50.00
2018-05-05T11:14:55.175Z,51.20
2018-05-05T11:17:22.720Z,51.20
2018-05-05T11:19:50.996Z,51.50
2018-05-05T11:22:18.590Z,51.40
2018-05-05T11:24:46.146Z,51.60
2018-05-05T11:27:13.649Z,50.50
2018-05-05T11:29:41.145Z,51.80
2018-05-05T11:32:08.682Z,51.40
2018-05-05T11:34:36.246Z,50.60
2018-05-05T11:37:03.972Z,50.40
2018-05-05T11:39:32.181Z,50.10
2018-05-05T11:41:59.772Z,50.10
2018-05-05T11:44:28.095Z,51.60
2018-05-05T11:46:55.668Z,51.60
2018-05-05T11:49:23.173Z,51.20
2018-05-05T11:51:50.909Z,51.30
2018-05-05T11:54:18.473Z,51.20
2018-05-05T11:56:46.020Z,50.50
2018-05-05T11:59:14.302Z,50.60
2018-05-05T12:01:41.891Z,50.50
2018-05-05T12:04:09.336Z,51.00
2018-05-05T12:06:36.837Z,51.30
2018-05-05T12:09:04.366Z,50.70
2018-05-05T12:11:31.869Z,51.10
2018-05-05T12:14:00.156Z,50.90
2018-05-05T12:16:28.429Z,51.40
2018-05-05T12:18:55.982Z,51.40
2018-05-05T12:21:23.485Z,53.20
2018-05-05T12:23:51.806Z,52.90
2018-05-05T12:26:19.304Z,52.20
2018-05-05T12:28:46.821Z,53.80
2018-05-05T12:31:15.096Z,52.10
2018-05-05T12:33:42.646Z,52.10
2018-05-05T12:36:10.214Z,53.50
2018-05-05T12:38:37.906Z,52.80
2018-05-05T12:41:05.413Z,52.40
2018-05-05T12:43:32.942Z,52.60
2018-05-05T12:46:00.505Z,55.10
2018-05-05T12:48:28.036Z,52.80
2018-05-05T12:50:55.588Z,51.90
2018-05-05T12:53:24.494Z,52.90
2018-05-05T12:55:52.817Z,52.00
2018-05-05T12:58:20.360Z,52.00
2018-05-05T13:00:48.644Z,51.90
2018-05-05T13:03:16.939Z,53.20
2018-05-05T13:05:45.220Z,52.70
2018-05-05T13:08:13.487Z,51.60
2018-05-05T13:10:41.011Z,51.50
2018-05-05T13:13:08.581Z,51.70
2018-05-05T13:15:36.127Z,51.70
2018-05-05T13:18:04.388Z,51.50
2018-05-05T13:20:31.913Z,51.50
2018-05-05T13:22:59.549Z,51.40
2018-05-05T13:25:27.832Z,51.60
2018-05-05T13:27:56.868Z,51.80
2018-05-05T13:30:24.393Z,51.70
2018-05-05T13:32:51.902Z,51.40
2018-05-05T13:35:19.480Z,51.20
2018-05-05T13:37:46.996Z,52.00
2018-05-05T13:40:14.513Z,52.10
2018-05-05T13:42:42.771Z,51.60
2018-05-05T13:45:10.320Z,51.60
2018-05-05T13:47:37.868Z,50.90
2018-05-05T13:50:05.384Z,51.20
2018-05-05T13:52:32.988Z,51.80
2018-05-05T13:55:01.288Z,50.20
2018-05-05T13:57:28.790Z,50.20
2018-05-05T13:59:56.305Z,49.60
2018-05-05T14:02:23.808Z,49.40
2018-05-05T14:04:51.361Z,51.30
2018-05-05T14:07:19.624Z,50.20
2018-05-05T14:09:47.179Z,50.20
2018-05-05T14:12:14.673Z,50.20
2018-05-05T14:14:42.182Z,50.50
2018-05-05T14:17:09.714Z,50.10
2018-05-05T14:19:37.253Z,50.80
2018-05-05T14:22:04.780Z,50.50
2018-05-05T14:24:32.284Z,49.60
2018-05-05T14:26:59.800Z,50.10
2018-05-05T14:29:27.298Z,48.60
2018-05-05T14:31:55.597Z,49.00
2018-05-05T14:34:23.096Z,49.00
2018-05-05T14:36:50.632Z,49.40
2018-05-05T14:39:18.173Z,49.60
2018-05-05T14:41:45.705Z,49.30
2018-05-05T14:44:13.236Z,49.70
2018-05-05T14:46:41.529Z,49.90
2018-05-05T14:49:09.792Z,49.90
2018-05-05T14:51:37.324Z,49.90
2018-05-05T14:54:04.821Z,49.30
2018-05-05T14:56:32.420Z,49.70
2018-05-05T14:59:00.735Z,49.90
2018-05-05T15:01:28.224Z,49.20
2018-05-05T15:03:55.781Z,49.30
2018-05-05T15:06:23.297Z,49.50
2018-05-05T15:08:50.809Z,49.90
2018-05-05T15:11:19.090Z,50.10
2018-05-05T15:13:47.364Z,49.70
2018-05-05T15:16:14.877Z,49.60
2018-05-05T15:18:42.404Z,49.90
2018-05-05T15:21:09.939Z,51.00
2018-05-05T15:23:37.437Z,49.50
2018-05-05T15:26:05.041Z,49.30
2018-05-05T15:28:33.308Z,48.80
2018-05-05T15:31:00.816Z,48.80
2018-05-05T15:33:28.317Z,49.80
2018-05-05T15:35:55.837Z,49.30
2018-05-05T15:38:24.146Z,49.00
2018-05-05T15:40:51.709Z,48.90
2018-05-05T15:43:19.221Z,49.30
2018-05-05T15:45:46.791Z,48.90
2018-05-05T15:48:14.325Z,49.00
2018-05-05T15:50:42.012Z,48.60
2018-05-05T15:53:09.545Z,48.60
2018-05-05T15:55:37.825Z,48.70
2018-05-05T15:58:05.349Z,48.60
2018-05-05T16:00:32.905Z,48.30
2018-05-05T16:03:00.480Z,48.00
2018-05-05T16:05:27.992Z,49.00
2018-05-05T16:07:55.509Z,48.30
2018-05-05T16:10:23.804Z,48.30
2018-05-05T16:12:52.209Z,48.90
2018-05-05T16:15:19.764Z,48.80
2018-05-05T16:17:48.120Z,48.50
2018-05-05T16:20:15.637Z,48.50
2018-05-05T16:22:43.167Z,49.30
2018-05-05T16:25:10.691Z,49.70
2018-05-05T16:27:38.247Z,49.10
2018-05-05T16:30:05.758Z,48.10
2018-05-05T16:32:33.299Z,48.60
2018-05-05T16:35:00.856Z,49.00
2018-05-05T16:37:28.380Z,48.80
2018-05-05T16:39:55.889Z,49.10
2018-05-05T16:42:24.172Z,49.40
2018-05-05T16:44:51.669Z,49.40
2018-05-05T16:47:19.199Z,48.30
2018-05-05T16:49:46.694Z,49.20
2018-05-05T16:52:15.016Z,48.70
2018-05-05T16:54:42.561Z,48.70
2018-05-05T16:57:10.880Z,49.10
2018-05-05T16:59:38.405Z,49.10
2018-05-05T17:02:06.773Z,49.90
2018-05-05T17:04:34.296Z,50.00
2018-05-05T17:07:01.909Z,49.40
2018-05-05T17:09:30.173Z,50.00
2018-05-05T17:11:57.711Z,50.00
2018-05-05T17:14:25.972Z,50.40
2018-05-05T17:16:53.528Z,50.40
2018-05-05T17:19:21.016Z,49.90
2018-05-05T17:21:50.033Z,50.40
2018-05-05T17:24:17.710Z,50.30
2018-05-05T17:26:45.214Z,50.30
2018-05-05T17:29:13.499Z,50.50
2018-05-05T17:31:40.997Z,50.30
2018-05-05T17:34:08.544Z,50.20
2018-05-05T17:36:36.040Z,50.70
2018-05-05T17:39:03.552Z,50.50
2018-05-05T17:41:31.045Z,50.40
2018-05-05T17:43:58.731Z,51.60
2018-05-05T17:46:26.251Z,51.90
2018-05-05T17:48:53.804Z,52.10
2018-05-05T17:51:21.480Z,51.70
2018-05-05T17:53:49.008Z,51.60
2018-05-05T17:56:17.277Z,53.10
2018-05-05T17:58:44.801Z,53.10
2018-05-05T18:01:12.308Z,53.10
2018-05-05T18:03:39.817Z,53.20
2018-05-05T18:06:07.308Z,53.30
2018-05-05T18:08:34.958Z,53.40
2018-05-05T18:11:02.510Z,53.80
2018-05-05T18:13:29.988Z,54.50
2018-05-05T18:15:58.285Z,54.80
2018-05-05T18:18:26.589Z,55.30
2018-05-05T18:20:54.139Z,55.30
2018-05-05T18:23:22.449Z,56.30
2018-05-05T18:25:49.949Z,56.30
2018-05-05T18:28:17.480Z,56.20
2018-05-05T18:30:45.793Z,57.00
2018-05-05T18:33:13.356Z,57.00
2018-05-05T18:35:40.917Z,56.80
2018-05-05T18:38:08.695Z,57.30
2018-05-05T18:40:37.029Z,58.00
2018-05-05T18:43:07.613Z,57.90
2018-05-05T18:45:36.125Z,60.00
2018-05-05T18:48:03.685Z,59.90
2018-05-05T18:50:32.051Z,61.20
2018-05-05T18:52:59.736Z,61.20
2018-05-05T18:55:27.265Z,61.10
2018-05-05T18:57:55.158Z,61.70
2018-05-05T19:00:22.830Z,63.10
2018-05-05T19:02:50.359Z,62.80
2018-05-05T19:05:17.985Z,64.40
2018-05-05T19:07:45.499Z,66.80
2018-05-05T19:10:13.062Z,65.40
2018-05-05T19:12:41.750Z,66.80
2018-05-05T19:15:09.444Z,66.80
2018-05-05T19:17:38.967Z,67.90
2018-05-05T19:20:06.955Z,68.00
2018-05-05T19:22:34.572Z,68.80
2018-05-05T19:25:03.929Z,69.60
2018-05-05T19:27:32.211Z,70.10
2018-05-05T19:30:00.598Z,69.50
2018-05-05T19:32:28.952Z,69.90
2018-05-05T19:34:56.618Z,69.80
2018-05-05T19:37:24.183Z,69.80
2018-05-05T19:39:51.721Z,70.10
2018-05-05T19:42:20.054Z,71.10
2018-05-05T19:44:47.577Z,71.10
2018-05-05T19:47:15.908Z,72.70
2018-05-05T19:49:43.462Z,72.70
2018-05-05T19:52:11.020Z,74.20
2018-05-05T19:54:39.335Z,73.30
2018-05-05T19:57:07.068Z,73.20
2018-05-05T19:59:35.360Z,75.10
2018-05-05T20:02:03.724Z,75.30
2018-05-05T20:04:31.274Z,74.50
2018-05-05T20:06:58.797Z,74.90
2018-05-05T20:09:27.146Z,76.30
2018-05-05T20:11:54.741Z,76.20
2018-05-05T20:14:22.348Z,78.20
2018-05-05T20:16:50.711Z,80.20
2018-05-05T20:19:18.316Z,80.20
2018-05-05T20:21:45.848Z,80.50
2018-05-05T20:24:13.448Z,81.50
2018-05-05T20:26:41.783Z,86.10
2018-05-05T20:29:09.649Z,86.20
2018-05-05T20:31:37.224Z,86.70
2018-05-05T20:34:04.821Z,86.90
2018-05-05T20:36:32.363Z,88.50
2018-05-05T20:38:59.890Z,87.90
2018-05-05T20:41:27.437Z,90.20
2018-05-05T20:43:54.962Z,91.70
2018-05-05T20:46:22.618Z,91.60
2018-05-05T20:48:50.927Z,93.20
2018-05-05T20:51:18.595Z,92.80
2018-05-05T20:53:46.904Z,92.90
2018-05-05T20:56:14.580Z,92.90
2018-05-05T20:58:44.035Z,93.70
2018-05-05T21:01:11.592Z,95.90
2018-05-05T21:03:39.126Z,97.20
2018-05-05T21:06:06.661Z,98.80
2018-05-05T21:08:35.678Z,97.40
2018-05-05T21:11:04.025Z,98.20
2018-05-05T21:13:31.569Z,98.10
2018-05-05T21:15:59.091Z,99.50
2018-05-05T21:18:26.618Z,99.90
2018-05-05T21:20:54.155Z,99.90
2018-05-05T21:23:22.460Z,99.90
2018-05-05T21:25:50.857Z,99.90
2018-05-05T21:28:18.357Z,99.90
2018-05-05T21:30:45.901Z,99.90
2018-05-05T21:33:13.406Z,99.90
2018-05-05T21:35:40.945Z,99.90
2018-05-05T21:38:08.511Z,99.90
2018-05-05T21:40:36.028Z,99.90
2018-05-05T21:43:03.532Z,99.90
2018-05-05T21:45:31.117Z,99.90
2018-05-05T21:47:59.406Z,99.90
2018-05-05T21:50:27.777Z,99.90
2018-05-05T21:52:55.272Z,99.90
2018-05-05T21:55:23.552Z,99.90
2018-05-05T21:57:51.820Z,99.90
2018-05-05T22:00:19.352Z,99.90
2018-05-05T22:02:46.904Z,99.90
2018-05-05T22:05:14.432Z,99.90
2018-05-05T22:07:42.700Z,99.90
2018-05-05T22:10:10.208Z,99.90
2018-05-05T22:12:38.508Z,99.90
2018-05-05T22:15:06.772Z,99.90
2018-05-05T22:17:34.295Z,99.90
2018-05-05T22:20:01.793Z,99.90
2018-05-05T22:22:29.312Z,99.90
2018-05-05T22:24:57.584Z,99.90
2018-05-05T22:27:25.104Z,99.90
2018-05-05T22:29:52.647Z,99.90
2018-05-05T22:32:20.965Z,99.90
2018-05-05T22:34:48.489Z,99.90
2018-05-05T22:37:16.007Z,99.90
2018-05-05T22:39:43.540Z,99.90
2018-05-05T22:42:11.833Z,99.90
2018-05-05T22:44:40.154Z,99.90
2018-05-05T22:47:07.685Z,99.90
2018-05-05T22:49:35.274Z,99.90
2018-05-05T22:52:03.560Z,99.90
2018-05-05T22:54:31.848Z,99.90
2018-05-05T22:57:00.149Z,99.90
2018-05-05T22:59:27.676Z,99.90
2018-05-05T23:01:55.196Z,99.90
2018-05-05T23:04:22.753Z,99.90
2018-05-05T23:06:51.108Z,99.90
2018-05-05T23:09:18.625Z,99.90
2018-05-05T23:11:46.203Z,99.90
2018-05-05T23:14:13.708Z,99.90
2018-05-05T23:16:41.248Z,99.90
2018-05-05T23:19:08.800Z,99.90
2018-05-05T23:21:37.141Z,99.90
2018-05-05T23:24:04.642Z,99.90
2018-05-05T23:26:32.179Z,99.90
2018-05-05T23:28:59.721Z,99.90
2018-05-05T23:31:27.277Z,99.90
2018-05-05T23:33:55.572Z,99.90
2018-05-05T23:36:23.133Z,99.90
2018-05-05T23:38:51.412Z,99.90
2018-05-05T23:41:18.953Z,99.90
2018-05-05T23:43:46.536Z,99.90
2018-05-05T23:46:15.570Z,99.90
2018-05-05T23:48:43.860Z,99.90
2018-05-05T23:51:12.160Z,99.90
2018-05-05T23:53:39.720Z,99.90
2018-05-05T23:56:08.008Z,99.90
2018-05-05T23:58:36.308Z,99.90
